sensor_id;sensor_type;location;lat;lon;timestamp;pressure;altitude;pressure_sealevel;temperature;humidity
33163;BME280;29282;45.656;11.302;2023-02-11T00:01:32;100274.59;;;18.22;35.27
33163;BME280;29282;45.656;11.302;2023-02-11T00:03:58;100268.56;;;18.20;35.46
33163;BME280;29282;45.656;11.302;2023-02-11T00:06:25;100268.56;;;18.20;35.49
33163;BME280;29282;45.656;11.302;2023-02-11T00:08:52;100271.31;;;18.20;35.47
33163;BME280;29282;45.656;11.302;2023-02-11T00:11:19;100279.53;;;18.20;35.39
33163;BME280;29282;45.656;11.302;2023-02-11T00:13:45;100281.16;;;18.21;35.33
33163;BME280;29282;45.656;11.302;2023-02-11T00:16:16;100283.91;;;18.21;35.34
33163;BME280;29282;45.656;11.302;2023-02-11T00:18:43;100279.25;;;18.21;35.12
33163;BME280;29282;45.656;11.302;2023-02-11T00:21:15;100282.00;;;18.21;35.25
33163;BME280;29282;45.656;11.302;2023-02-11T00:23:41;100281.47;;;18.19;35.21
33163;BME280;29282;45.656;11.302;2023-02-11T00:26:21;100276.78;;;18.20;35.26
33163;BME280;29282;45.656;11.302;2023-02-11T00:28:48;100282.53;;;18.23;35.32
33163;BME280;29282;45.656;11.302;2023-02-11T00:31:15;100275.69;;;18.21;35.24
33163;BME280;29282;45.656;11.302;2023-02-11T00:33:41;100268.56;;;18.20;35.37
33163;BME280;29282;45.656;11.302;2023-02-11T00:36:13;100272.41;;;18.19;35.33
33163;BME280;29282;45.656;11.302;2023-02-11T00:38:39;100276.78;;;18.20;35.30
33163;BME280;29282;45.656;11.302;2023-02-11T00:41:06;100272.13;;;18.20;35.28
33163;BME280;29282;45.656;11.302;2023-02-11T00:43:32;100276.53;;;18.21;35.21
33163;BME280;29282;45.656;11.302;2023-02-11T00:45:58;100278.16;;;18.22;35.12
33163;BME280;29282;45.656;11.302;2023-02-11T00:48:24;100272.13;;;18.20;35.32
33163;BME280;29282;45.656;11.302;2023-02-11T00:50:49;100267.44;;;18.21;35.31
33163;BME280;29282;45.656;11.302;2023-02-11T00:53:15;100271.84;;;18.22;35.26
33163;BME280;29282;45.656;11.302;2023-02-11T00:55:40;100267.44;;;18.21;35.20
33163;BME280;29282;45.656;11.302;2023-02-11T00:58:06;100265.00;;;18.19;35.25
33163;BME280;29282;45.656;11.302;2023-02-11T01:00:31;100263.31;;;18.23;35.15
33163;BME280;29282;45.656;11.302;2023-02-11T01:02:57;100256.78;;;18.19;35.26
33163;BME280;29282;45.656;11.302;2023-02-11T01:05:22;100272.13;;;18.20;35.23
33163;BME280;29282;45.656;11.302;2023-02-11T01:07:48;100268.56;;;18.20;35.27
33163;BME280;29282;45.656;11.302;2023-02-11T01:10:13;100266.63;;;18.20;35.19
33163;BME280;29282;45.656;11.302;2023-02-11T01:12:39;100266.94;;;18.19;35.16
33163;BME280;29282;45.656;11.302;2023-02-11T01:15:06;100265.81;;;18.20;35.24
33163;BME280;29282;45.656;11.302;2023-02-11T01:17:33;100252.91;;;18.20;35.07
33163;BME280;29282;45.656;11.302;2023-02-11T01:20:04;100252.91;;;18.20;35.12
33163;BME280;29282;45.656;11.302;2023-02-11T01:22:29;100247.44;;;18.20;35.21
33163;BME280;29282;45.656;11.302;2023-02-11T01:24:55;100247.44;;;18.20;35.08
33163;BME280;29282;45.656;11.302;2023-02-11T01:27:20;100246.34;;;18.21;35.18
33163;BME280;29282;45.656;11.302;2023-02-11T01:29:46;100246.34;;;18.21;35.22
33163;BME280;29282;45.656;11.302;2023-02-11T01:32:11;100250.16;;;18.20;35.24
33163;BME280;29282;45.656;11.302;2023-02-11T01:34:37;100246.34;;;18.21;35.12
33163;BME280;29282;45.656;11.302;2023-02-11T01:37:02;100247.44;;;18.20;35.15
33163;BME280;29282;45.656;11.302;2023-02-11T01:39:28;100251.28;;;18.19;35.19
33163;BME280;29282;45.656;11.302;2023-02-11T01:41:53;100236.19;;;18.22;35.22
33163;BME280;29282;45.656;11.302;2023-02-11T01:44:28;100234.00;;;18.19;35.15
33163;BME280;29282;45.656;11.302;2023-02-11T01:46:53;100223.84;;;18.19;35.18
33163;BME280;29282;45.656;11.302;2023-02-11T01:49:43;100236.44;;;18.20;35.17
33163;BME280;29282;45.656;11.302;2023-02-11T01:54:47;100238.09;;;18.21;35.25
33163;BME280;29282;45.656;11.302;2023-02-11T01:57:34;100238.94;;;18.22;35.09
33163;BME280;29282;45.656;11.302;2023-02-11T02:00:16;100238.06;;;18.26;35.06
33163;BME280;29282;45.656;11.302;2023-02-11T02:05:51;100236.44;;;18.25;35.10
33163;BME280;29282;45.656;11.302;2023-02-11T02:08:28;100246.84;;;18.28;35.01
33163;BME280;29282;45.656;11.302;2023-02-11T02:10:58;100244.34;;;18.27;35.13
33163;BME280;29282;45.656;11.302;2023-02-11T02:13:27;100247.91;;;18.27;35.01
33163;BME280;29282;45.656;11.302;2023-02-11T02:16:20;100246.84;;;18.28;34.94
33163;BME280;29282;45.656;11.302;2023-02-11T02:21:59;100243.78;;;18.30;35.09
33163;BME280;29282;45.656;11.302;2023-02-11T02:24:57;100247.34;;;18.30;35.04
33163;BME280;29282;45.656;11.302;2023-02-11T02:38:58;100229.56;;;18.28;35.05
33163;BME280;29282;45.656;11.302;2023-02-11T02:41:30;100230.63;;;18.27;34.95
33163;BME280;29282;45.656;11.302;2023-02-11T02:43:56;100227.09;;;18.26;35.04
33163;BME280;29282;45.656;11.302;2023-02-11T02:46:31;100220.47;;;18.27;35.11
33163;BME280;29282;45.656;11.302;2023-02-11T02:48:56;100219.97;;;18.25;35.02
33163;BME280;29282;45.656;11.302;2023-02-11T02:56:45;100214.47;;;18.25;34.93
33163;BME280;29282;45.656;11.302;2023-02-11T02:59:24;100207.63;;;18.23;35.15
33163;BME280;29282;45.656;11.302;2023-02-11T03:08:26;100201.84;;;18.24;35.07
33163;BME280;29282;45.656;11.302;2023-02-11T03:10:37;100193.34;;;18.26;35.04
33163;BME280;29282;45.656;11.302;2023-02-11T03:13:06;100199.09;;;18.24;34.91
33163;BME280;29282;45.656;11.302;2023-02-11T03:15:37;100194.47;;;18.25;35.12
33163;BME280;29282;45.656;11.302;2023-02-11T03:18:08;100192.53;;;18.25;34.97
33163;BME280;29282;45.656;11.302;2023-02-11T03:20:37;100181.56;;;18.25;34.94
33163;BME280;29282;45.656;11.302;2023-02-11T03:23:20;100188.66;;;18.26;35.01
33163;BME280;29282;45.656;11.302;2023-02-11T03:26:35;100185.09;;;18.26;35.15
33163;BME280;29282;45.656;11.302;2023-02-11T03:31:31;100175.75;;;18.27;35.02
33163;BME280;29282;45.656;11.302;2023-02-11T03:36:50;100182.06;;;18.27;34.89
33163;BME280;29282;45.656;11.302;2023-02-11T03:39:21;100172.75;;;18.28;35.04
33163;BME280;29282;45.656;11.302;2023-02-11T03:41:54;100168.06;;;18.29;34.99
33163;BME280;29282;45.656;11.302;2023-02-11T03:44:21;100173.03;;;18.27;35.07
33163;BME280;29282;45.656;11.302;2023-02-11T03:46:51;100167.53;;;18.27;34.82
33163;BME280;29282;45.656;11.302;2023-02-11T03:49:19;100154.91;;;18.31;34.72
33163;BME280;29282;45.656;11.302;2023-02-11T03:51:47;100151.88;;;18.27;34.87
33163;BME280;29282;45.656;11.302;2023-02-11T03:54:18;100158.50;;;18.26;35.08
33163;BME280;29282;45.656;11.302;2023-02-11T03:56:50;100159.59;;;18.25;34.93
33163;BME280;29282;45.656;11.302;2023-02-11T03:59:17;100165.09;;;18.25;34.91
33163;BME280;29282;45.656;11.302;2023-02-11T04:01:43;100164.78;;;18.27;34.79
33163;BME280;29282;45.656;11.302;2023-02-11T04:04:08;100155.75;;;18.26;35.00
33163;BME280;29282;45.656;11.302;2023-02-11T04:06:34;100154.63;;;18.27;34.84
33163;BME280;29282;45.656;11.302;2023-02-11T04:09:00;100148.31;;;18.27;35.02
33163;BME280;29282;45.656;11.302;2023-02-11T04:11:25;100147.50;;;18.26;34.98
33163;BME280;29282;45.656;11.302;2023-02-11T04:13:51;100142.84;;;18.27;34.88
33163;BME280;29282;45.656;11.302;2023-02-11T04:16:17;100139.00;;;18.28;34.96
33163;BME280;29282;45.656;11.302;2023-02-11T04:18:42;100130.22;;;18.26;34.94
33163;BME280;29282;45.656;11.302;2023-02-11T04:21:08;100137.66;;;18.25;34.89
33163;BME280;29282;45.656;11.302;2023-02-11T04:23:33;100138.16;;;18.27;34.98
33163;BME280;29282;45.656;11.302;2023-02-11T04:26:03;100137.34;;;18.27;35.01
33163;BME280;29282;45.656;11.302;2023-02-11T04:28:29;100129.41;;;18.25;34.87
33163;BME280;29282;45.656;11.302;2023-02-11T04:30:55;100138.47;;;18.26;35.00
33163;BME280;29282;45.656;11.302;2023-02-11T04:33:22;100133.78;;;18.26;34.91
33163;BME280;29282;45.656;11.302;2023-02-11T04:35:48;100141.22;;;18.26;35.03
33163;BME280;29282;45.656;11.302;2023-02-11T04:38:14;100139.00;;;18.28;34.85
33163;BME280;29282;45.656;11.302;2023-02-11T04:40:39;100132.97;;;18.26;34.87
33163;BME280;29282;45.656;11.302;2023-02-11T04:43:05;100137.66;;;18.25;34.97
33163;BME280;29282;45.656;11.302;2023-02-11T04:45:31;100137.66;;;18.25;34.97
33163;BME280;29282;45.656;11.302;2023-02-11T04:47:57;100129.13;;;18.27;34.92
33163;BME280;29282;45.656;11.302;2023-02-11T04:50:22;100128.31;;;18.26;35.02
33163;BME280;29282;45.656;11.302;2023-02-11T04:52:48;100125.03;;;18.24;34.84
33163;BME280;29282;45.656;11.302;2023-02-11T04:55:13;100126.69;;;18.25;35.02
33163;BME280;29282;45.656;11.302;2023-02-11T04:57:39;100130.50;;;18.24;34.86
33163;BME280;29282;45.656;11.302;2023-02-11T05:00:05;100132.16;;;18.25;34.81
33163;BME280;29282;45.656;11.302;2023-02-11T05:02:31;100120.06;;;18.26;34.97
33163;BME280;29282;45.656;11.302;2023-02-11T05:04:56;100120.88;;;18.27;34.78
33163;BME280;29282;45.656;11.302;2023-02-11T05:07:22;100118.16;;;18.27;34.96
33163;BME280;29282;45.656;11.302;2023-02-11T05:09:47;100118.44;;;18.25;34.87
33163;BME280;29282;45.656;11.302;2023-02-11T05:12:13;100120.88;;;18.27;34.74
33163;BME280;29282;45.656;11.302;2023-02-11T05:14:39;100129.66;;;18.29;34.95
33163;BME280;29282;45.656;11.302;2023-02-11T05:17:05;100119.50;;;18.29;34.94
33163;BME280;29282;45.656;11.302;2023-02-11T05:19:30;100124.16;;;18.29;34.76
33163;BME280;29282;45.656;11.302;2023-02-11T05:21:56;100114.31;;;18.28;34.71
33163;BME280;29282;45.656;11.302;2023-02-11T05:24:21;100117.06;;;18.28;34.90
33163;BME280;29282;45.656;11.302;2023-02-11T05:26:47;100118.97;;;18.27;34.91
33163;BME280;29282;45.656;11.302;2023-02-11T05:29:12;100114.31;;;18.28;34.91
33163;BME280;29282;45.656;11.302;2023-02-11T05:31:38;100113.47;;;18.27;34.90
33163;BME280;29282;45.656;11.302;2023-02-11T05:34:03;100114.81;;;18.30;34.71
33163;BME280;29282;45.656;11.302;2023-02-11T05:36:29;100111.56;;;18.28;34.48
33163;BME280;29282;45.656;11.302;2023-02-11T05:38:55;100112.91;;;18.30;34.77
33163;BME280;29282;45.656;11.302;2023-02-11T05:41:20;100111.25;;;18.29;34.89
33163;BME280;29282;45.656;11.302;2023-02-11T05:43:49;100104.44;;;18.27;35.04
33163;BME280;29282;45.656;11.302;2023-02-11T05:46:18;100104.44;;;18.27;34.91
33163;BME280;29282;45.656;11.302;2023-02-11T05:48:43;100108.28;;;18.26;35.02
33163;BME280;29282;45.656;11.302;2023-02-11T05:51:09;100099.25;;;18.25;34.93
33163;BME280;29282;45.656;11.302;2023-02-11T05:53:35;100104.44;;;18.27;34.82
33163;BME280;29282;45.656;11.302;2023-02-11T05:56:01;100094.56;;;18.26;34.91
33163;BME280;29282;45.656;11.302;2023-02-11T05:58:26;100097.59;;;18.24;34.67
33163;BME280;29282;45.656;11.302;2023-02-11T06:00:52;100094.84;;;18.24;34.98
33163;BME280;29282;45.656;11.302;2023-02-11T06:03:17;100092.63;;;18.26;34.70
33163;BME280;29282;45.656;11.302;2023-02-11T06:05:44;100097.53;;;18.29;34.65
33163;BME280;29282;45.656;11.302;2023-02-11T06:08:12;100098.91;;;18.32;34.67
33163;BME280;29282;45.656;11.302;2023-02-11T06:10:37;100092.28;;;18.33;34.80
33163;BME280;29282;45.656;11.302;2023-02-11T06:13:03;100082.13;;;18.34;34.73
33163;BME280;29282;45.656;11.302;2023-02-11T06:15:31;100090.91;;;18.36;34.60
33163;BME280;29282;45.656;11.302;2023-02-11T06:17:57;100090.91;;;18.36;34.74
33163;BME280;29282;45.656;11.302;2023-02-11T06:20:23;100085.41;;;18.36;34.60
33163;BME280;29282;45.656;11.302;2023-02-11T06:22:51;100082.66;;;18.36;34.70
33163;BME280;29282;45.656;11.302;2023-02-11T06:25:16;100097.22;;;18.36;34.54
33163;BME280;29282;45.656;11.302;2023-02-11T06:27:42;100088.97;;;18.36;34.62
33163;BME280;29282;45.656;11.302;2023-02-11T06:30:08;100088.16;;;18.36;34.78
33163;BME280;29282;45.656;11.302;2023-02-11T06:32:34;100095.56;;;18.35;34.58
33163;BME280;29282;45.656;11.302;2023-02-11T06:35:00;100101.88;;;18.36;34.51
33163;BME280;29282;45.656;11.302;2023-02-11T06:37:26;100097.50;;;18.35;34.75
33163;BME280;29282;45.656;11.302;2023-02-11T06:39:51;100087.63;;;18.34;34.77
33163;BME280;29282;45.656;11.302;2023-02-11T06:42:16;100085.69;;;18.34;34.75
33163;BME280;29282;45.656;11.302;2023-02-11T06:44:42;100083.78;;;18.35;34.63
33163;BME280;29282;45.656;11.302;2023-02-11T06:47:08;100081.56;;;18.37;34.76
33163;BME280;29282;45.656;11.302;2023-02-11T06:49:34;100084.59;;;18.35;34.73
33163;BME280;29282;45.656;11.302;2023-02-11T06:51:59;100085.69;;;18.34;34.71
33163;BME280;29282;45.656;11.302;2023-02-11T06:54:25;100085.41;;;18.36;34.71
33163;BME280;29282;45.656;11.302;2023-02-11T06:56:53;100088.44;;;18.34;34.72
33163;BME280;29282;45.656;11.302;2023-02-11T06:59:19;100089.28;;;18.35;34.56
33163;BME280;29282;45.656;11.302;2023-02-11T07:01:45;100084.59;;;18.35;34.64
33163;BME280;29282;45.656;11.302;2023-02-11T07:04:13;100093.09;;;18.34;34.70
33163;BME280;29282;45.656;11.302;2023-02-11T07:06:40;100092.84;;;18.35;34.63
33163;BME280;29282;45.656;11.302;2023-02-11T07:09:06;100097.50;;;18.35;34.59
33163;BME280;29282;45.656;11.302;2023-02-11T07:11:32;100105.75;;;18.35;34.83
33163;BME280;29282;45.656;11.302;2023-02-11T07:14:06;100098.03;;;18.37;34.65
33163;BME280;29282;45.656;11.302;2023-02-11T07:16:35;100098.03;;;18.37;34.70
33163;BME280;29282;45.656;11.302;2023-02-11T07:19:00;100102.69;;;18.36;34.70
33163;BME280;29282;45.656;11.302;2023-02-11T07:21:26;100110.13;;;18.36;34.57
33163;BME280;29282;45.656;11.302;2023-02-11T07:23:52;100110.13;;;18.36;34.75
33163;BME280;29282;45.656;11.302;2023-02-11T07:26:20;100109.81;;;18.37;34.66
33163;BME280;29282;45.656;11.302;2023-02-11T07:28:50;100109.00;;;18.37;34.64
33163;BME280;29282;45.656;11.302;2023-02-11T07:31:19;100111.47;;;18.38;34.67
33163;BME280;29282;45.656;11.302;2023-02-11T07:33:45;100109.00;;;18.37;34.74
33163;BME280;29282;45.656;11.302;2023-02-11T07:36:13;100112.84;;;18.36;34.68
33163;BME280;29282;45.656;11.302;2023-02-11T07:38:39;100109.00;;;18.37;34.55
33163;BME280;29282;45.656;11.302;2023-02-11T07:41:07;100107.25;;;18.46;34.52
33163;BME280;29282;45.656;11.302;2023-02-11T07:43:34;100118.13;;;18.56;34.35
33163;BME280;29282;45.656;11.302;2023-02-11T07:46:04;100106.19;;;18.71;34.05
33163;BME280;29282;45.656;11.302;2023-02-11T07:48:30;100110.91;;;18.89;33.77
33163;BME280;29282;45.656;11.302;2023-02-11T07:51:07;100112.41;;;19.00;33.60
33163;BME280;29282;45.656;11.302;2023-02-11T07:53:33;100111.47;;;19.10;33.50
33163;BME280;29282;45.656;11.302;2023-02-11T07:55:59;100116.31;;;19.18;33.32
33163;BME280;29282;45.656;11.302;2023-02-11T07:58:24;100128.28;;;19.28;33.39
33163;BME280;29282;45.656;11.302;2023-02-11T08:00:50;100125.78;;;19.31;33.34
33163;BME280;29282;45.656;11.302;2023-02-11T08:03:15;100116.63;;;19.36;33.21
33163;BME280;29282;45.656;11.302;2023-02-11T08:05:41;100118.56;;;19.35;33.26
33163;BME280;29282;45.656;11.302;2023-02-11T08:08:08;100115.22;;;19.38;33.21
33163;BME280;29282;45.656;11.302;2023-02-11T08:10:33;100114.41;;;19.38;33.26
33163;BME280;29282;45.656;11.302;2023-02-11T08:12:58;100119.38;;;19.36;33.34
33163;BME280;29282;45.656;11.302;2023-02-11T08:15:24;100118.34;;;19.32;33.46
33163;BME280;29282;45.656;11.302;2023-02-11T08:17:50;100120.56;;;19.30;33.71
33163;BME280;29282;45.656;11.302;2023-02-11T08:20:16;100124.97;;;19.31;33.48
33163;BME280;29282;45.656;11.302;2023-02-11T08:22:41;100121.38;;;19.30;33.61
33163;BME280;29282;45.656;11.302;2023-02-11T08:25:07;100116.84;;;19.39;33.34
33163;BME280;29282;45.656;11.302;2023-02-11T08:27:32;100112.09;;;19.45;33.33
33163;BME280;29282;45.656;11.302;2023-02-11T08:29:58;100114.75;;;19.50;33.26
33163;BME280;29282;45.656;11.302;2023-02-11T08:32:24;100115.00;;;19.54;32.96
33163;BME280;29282;45.656;11.302;2023-02-11T08:34:51;100109.50;;;19.54;32.93
33163;BME280;29282;45.656;11.302;2023-02-11T08:37:17;100109.19;;;19.55;32.64
33163;BME280;29282;45.656;11.302;2023-02-11T08:39:43;100113.56;;;19.56;32.43
33163;BME280;29282;45.656;11.302;2023-02-11T08:42:09;100108.06;;;19.56;32.38
33163;BME280;29282;45.656;11.302;2023-02-11T08:44:34;100110.53;;;19.58;32.19
33163;BME280;29282;45.656;11.302;2023-02-11T08:47:00;100105.31;;;19.56;32.24
33163;BME280;29282;45.656;11.302;2023-02-11T08:49:26;100099.81;;;19.56;32.22
33163;BME280;29282;45.656;11.302;2023-02-11T08:51:51;100101.25;;;19.54;32.36
33163;BME280;29282;45.656;11.302;2023-02-11T08:54:18;100108.66;;;19.53;32.47
33163;BME280;29282;45.656;11.302;2023-02-11T08:56:44;100104.81;;;19.54;32.39
33163;BME280;29282;45.656;11.302;2023-02-11T08:59:12;100106.44;;;19.55;32.32
33163;BME280;29282;45.656;11.302;2023-02-11T09:01:42;100106.13;;;19.57;32.33
33163;BME280;29282;45.656;11.302;2023-02-11T09:04:08;100107.84;;;19.53;32.41
33163;BME280;29282;45.656;11.302;2023-02-11T09:06:34;100114.63;;;19.60;32.56
33163;BME280;29282;45.656;11.302;2023-02-11T09:08:59;100108.53;;;19.63;32.55
33163;BME280;29282;45.656;11.302;2023-02-11T09:11:34;100113.19;;;19.63;32.63
33163;BME280;29282;45.656;11.302;2023-02-11T09:14:00;100115.13;;;19.62;32.72
33163;BME280;29282;45.656;11.302;2023-02-11T09:16:28;100115.44;;;19.61;32.70
33163;BME280;29282;45.656;11.302;2023-02-11T09:18:58;100119.53;;;19.63;32.61
33163;BME280;29282;45.656;11.302;2023-02-11T09:21:25;100120.88;;;19.66;32.54
33163;BME280;29282;45.656;11.302;2023-02-11T09:23:50;100113.75;;;19.65;32.58
33163;BME280;29282;45.656;11.302;2023-02-11T09:26:27;100129.94;;;19.66;32.61
33163;BME280;29282;45.656;11.302;2023-02-11T09:28:54;100126.09;;;19.67;32.51
33163;BME280;29282;45.656;11.302;2023-02-11T09:31:22;100125.78;;;19.69;32.73
33163;BME280;29282;45.656;11.302;2023-02-11T09:33:50;100124.66;;;19.70;32.57
33163;BME280;29282;45.656;11.302;2023-02-11T09:36:27;100121.41;;;19.68;32.71
33163;BME280;29282;45.656;11.302;2023-02-11T09:38:53;100132.91;;;19.70;32.59
33163;BME280;29282;45.656;11.302;2023-02-11T09:43:48;100134.84;;;19.69;32.75
33163;BME280;29282;45.656;11.302;2023-02-11T09:46:16;100134.03;;;19.69;32.76
33163;BME280;29282;45.656;11.302;2023-02-11T09:48:46;100141.41;;;19.74;32.84
33163;BME280;29282;45.656;11.302;2023-02-11T09:51:20;100146.38;;;19.71;32.65
33163;BME280;29282;45.656;11.302;2023-02-11T09:53:53;100144.97;;;19.74;32.70
33163;BME280;29282;45.656;11.302;2023-02-11T09:56:21;100141.41;;;19.74;32.90
33163;BME280;29282;45.656;11.302;2023-02-11T09:58:47;100135.91;;;19.74;32.57
33163;BME280;29282;45.656;11.302;2023-02-11T10:01:41;100133.66;;;19.76;32.67
33163;BME280;29282;45.656;11.302;2023-02-11T10:09:56;100137.81;;;19.73;32.88
33163;BME280;29282;45.656;11.302;2023-02-11T10:15:25;100132.03;;;19.75;32.86
33163;BME280;29282;45.656;11.302;2023-02-11T10:18:09;100127.66;;;19.74;32.83
33163;BME280;29282;45.656;11.302;2023-02-11T10:23:28;100127.13;;;19.71;33.08
33163;BME280;29282;45.656;11.302;2023-02-11T10:25:56;100129.06;;;19.71;32.82
33163;BME280;29282;45.656;11.302;2023-02-11T10:28:28;100126.31;;;19.71;32.95
33163;BME280;29282;45.656;11.302;2023-02-11T10:30:58;100125.78;;;19.69;33.03
33163;BME280;29282;45.656;11.302;2023-02-11T10:36:19;100121.41;;;19.68;33.15
33163;BME280;29282;45.656;11.302;2023-02-11T10:38:48;100118.94;;;19.66;33.22
33163;BME280;29282;45.656;11.302;2023-02-11T10:41:21;100111.22;;;19.68;33.16
33163;BME280;29282;45.656;11.302;2023-02-11T10:43:48;100108.16;;;19.70;33.16
33163;BME280;29282;45.656;11.302;2023-02-11T10:46:21;100103.78;;;19.69;33.11
33163;BME280;29282;45.656;11.302;2023-02-11T10:48:51;100094.66;;;19.74;33.09
33163;BME280;29282;45.656;11.302;2023-02-11T10:53:47;100090.25;;;19.73;33.01
33163;BME280;29282;45.656;11.302;2023-02-11T10:56:20;100088.31;;;19.73;33.19
33163;BME280;29282;45.656;11.302;2023-02-11T11:01:46;100075.69;;;19.72;33.11
33163;BME280;29282;45.656;11.302;2023-02-11T11:06:50;100066.69;;;19.66;33.40
33163;BME280;29282;45.656;11.302;2023-02-11T11:09:29;100060.47;;;19.61;33.17
33163;BME280;29282;45.656;11.302;2023-02-11T11:11:55;100063.03;;;18.47;28.82
33163;BME280;29282;45.656;11.302;2023-02-11T11:14:22;100060.31;;;18.71;32.17
33163;BME280;29282;45.656;11.302;2023-02-11T11:16:53;100064.91;;;19.00;30.97
33163;BME280;29282;45.656;11.302;2023-02-11T11:19:23;100050.28;;;19.23;30.43
33163;BME280;29282;45.656;11.302;2023-02-11T11:24:32;100045.00;;;19.46;30.68
33163;BME280;29282;45.656;11.302;2023-02-11T11:27:03;100044.63;;;19.53;30.72
33163;BME280;29282;45.656;11.302;2023-02-11T11:29:39;100038.84;;;19.54;30.75
33163;BME280;29282;45.656;11.302;2023-02-11T11:32:18;100031.41;;;19.55;30.98
33163;BME280;29282;45.656;11.302;2023-02-11T11:34:52;100025.59;;;19.56;31.01
33163;BME280;29282;45.656;11.302;2023-02-11T11:37:31;100026.94;;;19.59;31.21
33163;BME280;29282;45.656;11.302;2023-02-11T11:42:34;100021.16;;;19.60;31.57
33163;BME280;29282;45.656;11.302;2023-02-11T11:45:03;100024.97;;;19.64;31.58
33163;BME280;29282;45.656;11.302;2023-02-11T11:50:34;100013.25;;;19.73;31.79
33163;BME280;29282;45.656;11.302;2023-02-11T11:53:20;100010.72;;;19.76;31.66
33163;BME280;29282;45.656;11.302;2023-02-11T11:56:02;100015.00;;;19.82;31.84
33163;BME280;29282;45.656;11.302;2023-02-11T11:58:30;100008.63;;;19.87;31.68
33163;BME280;29282;45.656;11.302;2023-02-11T12:09:00;100003.53;;;19.94;31.67
33163;BME280;29282;45.656;11.302;2023-02-11T12:11:42;99997.00;;;19.90;32.03
33163;BME280;29282;45.656;11.302;2023-02-11T12:29:30;99976.31;;;19.92;32.18
33163;BME280;29282;45.656;11.302;2023-02-11T12:32:27;99988.97;;;19.93;32.22
33163;BME280;29282;45.656;11.302;2023-02-11T12:40:35;99979.28;;;19.96;32.44
33163;BME280;29282;45.656;11.302;2023-02-11T12:43:21;99979.28;;;19.96;32.61
33163;BME280;29282;45.656;11.302;2023-02-11T12:51:29;99980.00;;;19.88;33.00
33163;BME280;29282;45.656;11.302;2023-02-11T12:56:47;99971.53;;;19.84;33.21
33163;BME280;29282;45.656;11.302;2023-02-11T13:02:20;99980.28;;;19.86;33.54
33163;BME280;29282;45.656;11.302;2023-02-11T13:04:52;99974.16;;;19.89;33.37
33163;BME280;29282;45.656;11.302;2023-02-11T13:07:33;99966.13;;;19.93;33.45
33163;BME280;29282;45.656;11.302;2023-02-11T13:12:42;99975.72;;;19.95;33.38
33163;BME280;29282;45.656;11.302;2023-02-11T13:15:27;99961.97;;;19.95;33.55
33163;BME280;29282;45.656;11.302;2023-02-11T13:18:08;99964.22;;;19.93;33.51
33163;BME280;29282;45.656;11.302;2023-02-11T13:20:47;99970.22;;;19.95;33.45
33163;BME280;29282;45.656;11.302;2023-02-11T13:42:53;99945.97;;;19.98;33.88
33163;BME280;29282;45.656;11.302;2023-02-11T13:45:45;99941.56;;;19.97;33.93
33163;BME280;29282;45.656;11.302;2023-02-11T13:48:21;99935.25;;;19.96;33.83
33163;BME280;29282;45.656;11.302;2023-02-11T13:50:59;99941.91;;;19.95;34.10
33163;BME280;29282;45.656;11.302;2023-02-11T13:53:25;99942.41;;;19.97;33.97
33163;BME280;29282;45.656;11.302;2023-02-11T13:56:04;99931.41;;;19.97;33.98
33163;BME280;29282;45.656;11.302;2023-02-11T13:58:34;99927.63;;;19.93;33.98
33163;BME280;29282;45.656;11.302;2023-02-11T14:01:01;99925.47;;;19.90;34.24
33163;BME280;29282;45.656;11.302;2023-02-11T14:03:35;99923.56;;;19.90;34.28
33163;BME280;29282;45.656;11.302;2023-02-11T14:06:27;99921.41;;;19.87;34.06
33163;BME280;29282;45.656;11.302;2023-02-11T14:09:34;99915.91;;;19.87;34.21
33163;BME280;29282;45.656;11.302;2023-02-11T14:12:22;99909.38;;;19.83;34.31
33163;BME280;29282;45.656;11.302;2023-02-11T14:15:18;99923.13;;;19.83;34.28
33163;BME280;29282;45.656;11.302;2023-02-11T14:17:44;99921.50;;;19.82;34.19
33163;BME280;29282;45.656;11.302;2023-02-11T14:20:35;99916.94;;;19.78;34.24
33163;BME280;29282;45.656;11.302;2023-02-11T14:23:02;99905.13;;;19.77;34.16
33163;BME280;29282;45.656;11.302;2023-02-11T14:25:32;99903.47;;;19.76;34.20
33163;BME280;29282;45.656;11.302;2023-02-11T14:28:06;99907.03;;;19.77;34.04
33163;BME280;29282;45.656;11.302;2023-02-11T14:41:22;99900.22;;;19.74;34.05
33163;BME280;29282;45.656;11.302;2023-02-11T14:43:52;99895.53;;;19.75;34.06
33163;BME280;29282;45.656;11.302;2023-02-11T14:46:21;99888.41;;;19.74;34.06
33163;BME280;29282;45.656;11.302;2023-02-11T14:48:50;99890.31;;;19.73;34.00
33163;BME280;29282;45.656;11.302;2023-02-11T14:51:42;99885.94;;;19.72;34.11
33163;BME280;29282;45.656;11.302;2023-02-11T14:54:15;99885.66;;;19.74;34.05
33163;BME280;29282;45.656;11.302;2023-02-11T14:56:41;99883.72;;;19.74;34.03
33163;BME280;29282;45.656;11.302;2023-02-11T14:59:23;99873.81;;;19.73;33.92
33163;BME280;29282;45.656;11.302;2023-02-11T15:01:49;99877.69;;;19.72;34.06
33163;BME280;29282;45.656;11.302;2023-02-11T15:04:27;99883.19;;;19.72;33.97
33163;BME280;29282;45.656;11.302;2023-02-11T15:06:54;99878.00;;;19.70;33.97
33163;BME280;29282;45.656;11.302;2023-02-11T15:09:27;99879.63;;;19.71;34.08
33163;BME280;29282;45.656;11.302;2023-02-11T15:11:57;99875.25;;;19.70;34.01
33163;BME280;29282;45.656;11.302;2023-02-11T15:14:33;99873.13;;;19.67;34.19
33163;BME280;29282;45.656;11.302;2023-02-11T15:17:05;99875.88;;;19.67;33.98